Flight Track Log - Related Links

Times and Time Zones

All times are in EDT time to prevent confusion due to time zone crossing. See the N830QS flight status page for this flight to view local times or setup timezone preferences in your user account.

Time Position Orientation Groundspeed Altitude Reporting Facility
EDT Latitude Longitude Course Direction KTS MPH feet Rate Location/Type
Thu 02:11:58 PM 25.9019 -97.4197 38° Northeast 129 148 700  Level Houston Center
Thu 02:12:59 PM 25.9364 -97.3894 38° Northeast 223 257 3,000 2,109 Climbing Houston Center
Thu 02:14:06 PM 26.0181 -97.3667 14° North 299 344 5,200 2,806 Climbing Houston Center
Thu 02:15:18 PM 26.1156 -97.3417 13° North 290 334 9,500 3,358 Climbing Houston Center
Thu 02:16:20 PM 26.2003 -97.3344 North 310 357 12,700 2,688 Climbing Houston Center
Thu 02:17:23 PM 26.2958 -97.3403 357° North 318 366 15,100 2,112 Climbing Houston Center
Thu 02:18:25 PM 26.3928 -97.3464 357° North 343 395 17,100 2,177 Climbing Houston Center
Thu 02:19:27 PM 26.4953 -97.3536 356° North 345 397 19,600 2,371 Climbing Houston Center
Thu 02:20:29 PM 26.5878 -97.3594 357° North 334 384 22,000 2,129 Climbing Houston Center
Thu 02:21:31 PM 26.6869 -97.3661 357° North 331 381 24,000 968 Climbing Houston Center
Thu 02:22:33 PM 26.7892 -97.3711 357° North 365 420 24,000  Level Houston Center
Thu 02:23:35 PM 26.8883 -97.3328 19° North 397 457 24,000  Level Houston Center
Thu 02:24:37 PM 26.9875 -97.2922 20° North 392 451 24,000  Level Houston Center
Thu 02:25:40 PM 27.0875 -97.2483 21° North 387 445 24,000 480 Level Houston Center
Thu 02:26:42 PM 27.2072 -97.1958 21° North 386 444 25,000 484 Climbing Houston Center
Thu 02:27:44 PM 27.3069 -97.1536 21° North 385 443 25,000  Level Houston Center
Thu 02:28:46 PM 27.4086 -97.1081 22° Northeast 387 445 25,000  Level Houston Center
Thu 02:29:48 PM 27.5122 -97.0628 21° North 391 450 25,000  Level Houston Center
Thu 02:30:50 PM 27.6181 -97.0172 21° North 397 457 25,000  Level Houston Center
Thu 02:31:53 PM 27.7444 -96.9617 21° North 402 463 25,000  Level Houston Center
Thu 02:32:55 PM 27.8492 -96.9164 21° North 403 464 25,000  Level Houston Center
Thu 02:33:57 PM 27.9528 -96.8706 21° North 402 463 25,000  Level Houston Center
Thu 02:34:59 PM 28.0611 -96.8250 20° North 407 468 25,000  Level Houston Center
Thu 02:36:01 PM 28.1653 -96.7794 21° North 403 464 25,000  Level Houston Center
Thu 02:37:03 PM 28.2781 -96.7289 22° Northeast 400 460 25,000  Level Houston Center
Thu 02:38:05 PM 28.3847 -96.6839 20° North 403 464 25,000  Level Houston Center
Thu 02:39:07 PM 28.4894 -96.6383 21° North 404 465 25,000  Level Houston Center
Thu 02:40:10 PM 28.6147 -96.5814 22° Northeast 403 464 25,000  Level Houston Center
Thu 02:41:12 PM 28.7172 -96.5339 22° Northeast 401 461 25,000 -194 Level Houston Center
Thu 02:42:14 PM 28.8269 -96.4897 19° North 410 472 24,600 -1,161 Descending Houston Center
Thu 02:43:16 PM 28.9297 -96.4439 21° North 398 458 22,600 -1,984 Descending Houston Center
Thu 02:44:18 PM 29.0303 -96.3989 21° North 391 450 20,500 -1,984 Descending Houston Center
Thu 02:45:20 PM 29.1283 -96.3558 21° North 379 436 18,500 -2,112 Descending Houston Center
Thu 02:46:23 PM 29.2447 -96.3036 21° North 376 433 16,100 -2,064 Descending Houston Center
Thu 02:47:25 PM 29.3356 -96.2625 22° Northeast 355 409 14,200 -1,934 Descending Houston Center
Thu 02:48:24 PM 29.4325 -96.2200 21° North 355 409 12,200 -1,884 Descending Houston Center
Thu 02:49:26 PM 29.5306 -96.1875 16° North 337 388 10,400 -1,073 Descending Houston Center
Thu 02:50:27 PM 29.6050 -96.1503 23° Northeast 285 328 10,000 -885 Descending Houston Center
Thu 02:51:28 PM 29.6619 -96.0792 47° Northeast 297 342 8,600 -1,561 Descending Houston Center
Thu 02:52:30 PM 29.7175 -96.0175 44° Northeast 268 308 6,800 -1,795 Descending Houston Center
Thu 02:53:25 PM 29.7711 -95.9586 44° Northeast 292 336 5,100 -2,213 Descending Houston Center
Thu 02:54:32 PM 29.8319 -95.8867 46° Northeast 278 320 2,300 -1,442 Descending Houston Center
Thu 02:55:34 PM 29.8836 -95.8300 44° Northeast 228 262 2,000 -146 Descending Houston Center
Thu 02:56:35 PM 29.9294 -95.7789 44° Northeast 233 268 2,000  Level Houston Center
Thu 02:57:36 PM 29.9750 -95.7253 46° Northeast 221 254 2,000  Level Houston Center
Thu 02:58:48 PM 30.0272 -95.6694 43° Northeast 223 257 2,000 -89 Level Houston Center
Thu 02:59:51 PM 30.0714 -95.6203 44° Northeast 221 254 1,800 -482 Descending Houston Center
Thu 03:00:40 PM 30.0997 -95.5925 40° Northeast 160 184 1,100 -709 Descending Houston Center
Thu 03:01:41 PM 30.0861 -95.5578 114° Southeast 118 136 500 -590 Descending Houston Center
Thu 03:03:00 PM 30.0618 -95.5528 180° South  Level Estimated

Login

Don't have an account? Register now (free) for customized features, flight alerts, and more!